Time;durP1;ratioP1;P1;durP2;ratioP2;P2;SDS_P1;SDS_P2;PMS_P1;PMS_P2;Temp;Humidity;BMP_temperature;BMP_pressure;BME280_temperature;BME280_humidity;BME280_pressure;Samples;Min_cycle;Max_cycle;Signal;HPM_P1;HPM_P2
2022/11/06 00:00:30;;;;;;;;;;;4.60;99.90;;;;;;1888308;74;20300;-76
2022/11/06 00:02:58;;;;;;;;;;;4.60;99.90;;;;;;1893288;74;20155;-75
2022/11/06 00:08:10;;;;;;;;;;;4.70;99.90;;;;;;1889157;74;20332;-77
2022/11/06 00:10:36;;;;;;;;;;;4.70;99.90;;;;;;1887696;75;20120;-76
2022/11/06 00:13:03;;;;;;;;;;;4.80;99.90;;;;;;1890388;75;20391;-77
2022/11/06 00:15:30;;;;;;;;;;;4.80;99.90;;;;;;1890905;74;20128;-75
2022/11/06 00:17:56;;;;;;;;;;;4.70;99.90;;;;;;1889056;74;20497;-76
2022/11/06 00:20:23;;;;;;;;;;;4.70;99.90;;;;;;1897231;74;20154;-76
2022/11/06 00:22:50;;;;;;;;;;;4.60;99.90;;;;;;1900570;74;20152;-76
2022/11/06 00:25:17;;;;;;;;;;;4.50;99.90;;;;;;1901153;74;20130;-75
2022/11/06 00:27:43;;;;;;;;;;;4.50;99.90;;;;;;1888178;74;20125;-75
2022/11/06 00:30:10;;;;;;;;;;;4.50;99.90;;;;;;1894889;74;20152;-76
2022/11/06 00:32:37;;;;;;;;;;;4.60;99.90;;;;;;1885558;74;20115;-76
2022/11/06 00:35:04;;;;;;;;;;;4.60;99.90;;;;;;1884433;75;20124;-77
2022/11/06 00:37:31;;;;;;;;;;;4.80;99.90;;;;;;1907709;74;20148;-76
2022/11/06 00:39:58;;;;;;;;;;;4.80;99.90;;;;;;1893057;75;20177;-75
2022/11/06 00:42:25;;;;;;;;;;;4.80;99.90;;;;;;1891030;74;20151;-76
2022/11/06 00:44:51;;;;;;;;;;;4.90;99.90;;;;;;1897136;74;20339;-76
2022/11/06 00:47:18;;;;;;;;;;;4.90;99.90;;;;;;1894030;74;20162;-77
2022/11/06 00:49:45;;;;;;;;;;;4.90;99.90;;;;;;1902420;74;20222;-75
2022/11/06 00:52:12;;;;;;;;;;;4.90;99.90;;;;;;1887262;74;20212;-75
2022/11/06 00:54:38;;;;;;;;;;;5.00;99.90;;;;;;1901995;74;20281;-76
2022/11/06 00:57:05;;;;;;;;;;;5.00;99.90;;;;;;1894606;73;20171;-76
2022/11/06 00:59:33;;;;;;;;;;;5.00;99.90;;;;;;1891890;74;20470;-74
2022/11/06 01:02:00;;;;;;;;;;;4.80;99.90;;;;;;1879981;75;20128;-75
2022/11/06 01:04:27;;;;;;;;;;;4.80;99.90;;;;;;1894126;73;20123;-75
2022/11/06 01:06:55;;;;;;;;;;;4.90;99.90;;;;;;1898438;74;20124;-74
2022/11/06 01:09:23;;;;;;;;;;;4.70;99.90;;;;;;1891182;74;20115;-76
2022/11/06 01:11:51;;;;;;;;;;;4.60;99.90;;;;;;1894818;75;20162;-75
2022/11/06 01:14:18;;;;;;;;;;;4.60;99.90;;;;;;1891434;74;20124;-76
2022/11/06 01:16:46;;;;;;;;;;;4.60;99.90;;;;;;1899877;75;20122;-75
2022/11/06 01:19:12;;;;;;;;;;;4.60;99.90;;;;;;1901236;74;20156;-75
2022/11/06 01:21:41;;;;;;;;;;;4.60;99.90;;;;;;1896929;74;20333;-76
2022/11/06 01:24:09;;;;;;;;;;;4.50;99.90;;;;;;1888896;75;20148;-76
2022/11/06 01:26:36;;;;;;;;;;;4.40;99.90;;;;;;1885492;74;20160;-76
2022/11/06 01:29:02;;;;;;;;;;;4.40;99.90;;;;;;1897645;74;20154;-77
2022/11/06 01:31:30;;;;;;;;;;;4.50;99.90;;;;;;1882787;74;20348;-77
2022/11/06 01:33:57;;;;;;;;;;;4.40;99.90;;;;;;1888772;74;20124;-76
2022/11/06 01:36:24;;;;;;;;;;;4.50;99.90;;;;;;1882474;74;20116;-77
2022/11/06 01:38:52;;;;;;;;;;;4.40;99.90;;;;;;1896304;74;20113;-77
2022/11/06 01:41:20;;;;;;;;;;;4.40;99.90;;;;;;1902512;74;20217;-77
2022/11/06 01:43:52;;;;;;;;;;;4.50;99.90;;;;;;1905256;73;20115;-76
2022/11/06 01:46:20;;;;;;;;;;;4.40;99.90;;;;;;1896605;74;20113;-76
2022/11/06 01:48:48;;;;;;;;;;;4.50;99.90;;;;;;1910065;74;20128;-77
2022/11/06 01:51:15;;;;;;;;;;;4.60;99.90;;;;;;1895327;73;20159;-77
2022/11/06 01:53:42;;;;;;;;;;;4.60;99.90;;;;;;1881609;75;20180;-76
2022/11/06 01:56:09;;;;;;;;;;;4.40;99.90;;;;;;1902605;74;20391;-76
2022/11/06 01:58:36;;;;;;;;;;;4.40;99.90;;;;;;1889261;74;20410;-75
2022/11/06 02:01:03;;;;;;;;;;;4.50;99.90;;;;;;1891336;74;20108;-74
2022/11/06 02:03:30;;;;;;;;;;;4.30;99.90;;;;;;1889383;74;20124;-75
2022/11/06 02:05:56;;;;;;;;;;;4.50;99.90;;;;;;1898611;74;20164;-75
2022/11/06 02:08:23;;;;;;;;;;;4.30;99.90;;;;;;1895484;74;20121;-75
2022/11/06 02:10:50;;;;;;;;;;;4.30;99.90;;;;;;1891274;74;20461;-76
2022/11/06 02:13:21;;;;;;;;;;;4.10;99.90;;;;;;1896007;75;20124;-75
2022/11/06 02:15:50;;;;;;;;;;;3.90;99.90;;;;;;1887416;74;20124;-75
2022/11/06 02:18:34;;;;;;;;;;;4.00;99.90;;;;;;1909943;74;20122;-74
2022/11/06 02:21:19;;;;;;;;;;;4.10;99.90;;;;;;1886794;74;20124;-74
2022/11/06 02:24:06;;;;;;;;;;;4.10;99.90;;;;;;1895403;74;20427;-74
2022/11/06 02:26:51;;;;;;;;;;;4.20;99.90;;;;;;1896502;74;20151;-76
2022/11/06 02:29:19;;;;;;;;;;;4.10;99.90;;;;;;1891649;73;20116;-75
2022/11/06 02:31:46;;;;;;;;;;;4.00;99.90;;;;;;1899968;74;20128;-75
2022/11/06 02:34:13;;;;;;;;;;;3.90;99.90;;;;;;1907268;74;20124;-75
2022/11/06 02:36:42;;;;;;;;;;;3.90;99.90;;;;;;1888072;74;20132;-75
2022/11/06 02:39:10;;;;;;;;;;;3.80;99.90;;;;;;1889963;73;20109;-76
2022/11/06 02:41:38;;;;;;;;;;;3.70;99.90;;;;;;1884724;74;20330;-76
2022/11/06 02:44:09;;;;;;;;;;;3.70;99.90;;;;;;1894367;73;20404;-77
2022/11/06 02:46:37;;;;;;;;;;;3.70;99.90;;;;;;1890626;74;20122;-77
2022/11/06 02:49:07;;;;;;;;;;;3.60;99.90;;;;;;1893444;74;20186;-77
2022/11/06 02:51:36;;;;;;;;;;;3.60;99.90;;;;;;1905965;74;20131;-77
2022/11/06 02:54:02;;;;;;;;;;;3.60;99.90;;;;;;1896786;73;20403;-76
2022/11/06 02:56:31;;;;;;;;;;;3.50;99.90;;;;;;1906091;74;20124;-77
2022/11/06 02:59:05;;;;;;;;;;;3.50;99.90;;;;;;1886831;74;20154;-77
2022/11/06 03:01:37;;;;;;;;;;;3.50;99.90;;;;;;1890947;74;20333;-75
2022/11/06 03:04:05;;;;;;;;;;;3.60;99.90;;;;;;1888396;74;20190;-76
2022/11/06 03:06:35;;;;;;;;;;;3.50;99.90;;;;;;1886801;74;20181;-77
2022/11/06 03:09:04;;;;;;;;;;;3.40;99.90;;;;;;1887972;74;20128;-76
2022/11/06 03:14:35;;;;;;;;;;;3.50;99.90;;;;;;2057240;70;20131;-76
2022/11/06 03:17:06;;;;;;;;;;;3.40;99.90;;;;;;2011704;70;20104;-77
2022/11/06 03:19:44;;;;;;;;;;;3.40;99.90;;;;;;2022389;71;20108;-76
2022/11/06 03:22:21;;;;;;;;;;;3.50;99.90;;;;;;2013093;70;20116;-76
2022/11/06 03:24:52;;;;;;;;;;;3.50;99.90;;;;;;2022467;70;20331;-76
2022/11/06 03:27:21;;;;;;;;;;;3.50;99.90;;;;;;2023951;70;20123;-76
2022/11/06 03:29:49;;;;;;;;;;;3.50;99.90;;;;;;1964264;70;20173;-75
2022/11/06 03:32:23;;;;;;;;;;;3.50;99.90;;;;;;2013241;71;20153;-75
2022/11/06 03:34:51;;;;;;;;;;;3.40;99.90;;;;;;2011081;70;20115;-76
2022/11/06 03:37:19;;;;;;;;;;;3.40;99.90;;;;;;2013226;71;20092;-77
2022/11/06 03:39:47;;;;;;;;;;;3.40;99.90;;;;;;2000377;70;20119;-76
2022/11/06 03:42:15;;;;;;;;;;;3.40;99.90;;;;;;2013046;70;20163;-76
2022/11/06 03:44:43;;;;;;;;;;;3.40;99.90;;;;;;2013322;71;20096;-77
2022/11/06 03:47:21;;;;;;;;;;;3.30;99.90;;;;;;2011758;71;20328;-76
2022/11/06 03:49:49;;;;;;;;;;;3.30;99.90;;;;;;2015330;70;20177;-76
2022/11/06 03:52:17;;;;;;;;;;;3.30;99.90;;;;;;2017377;71;20185;-76
2022/11/06 03:54:46;;;;;;;;;;;3.40;99.90;;;;;;2008694;70;20135;-76
2022/11/06 03:57:17;;;;;;;;;;;3.30;99.90;;;;;;2018463;70;20127;-76
2022/11/06 03:59:45;;;;;;;;;;;3.30;99.90;;;;;;2009725;70;20220;-76
2022/11/06 04:02:12;;;;;;;;;;;3.30;99.90;;;;;;2012547;70;20104;-76
2022/11/06 04:04:52;;;;;;;;;;;3.30;99.90;;;;;;2021523;70;20114;-76
2022/11/06 04:07:20;;;;;;;;;;;3.30;99.90;;;;;;2029798;71;20169;-75
2022/11/06 04:15:18;;;;;;;;;;;3.20;99.90;;;;;;2009039;70;20145;-76
2022/11/06 04:17:44;;;;;;;;;;;3.20;99.90;;;;;;2009669;70;20363;-75
2022/11/06 04:21:20;;;;;;;;;;;3.20;99.90;;;;;;2010478;70;20157;-77
2022/11/06 04:22:46;;;;;;;;;;;3.10;99.90;;;;;;2012470;70;20140;-76
2022/11/06 04:28:17;;;;;;;;;;;3.10;99.90;;;;;;2019825;70;20174;-77
2022/11/06 04:30:45;;;;;;;;;;;3.00;99.90;;;;;;2012472;70;20156;-77
2022/11/06 04:33:20;;;;;;;;;;;3.00;99.90;;;;;;2010754;70;20115;-76
2022/11/06 04:35:48;;;;;;;;;;;2.90;99.90;;;;;;2005287;70;20111;-76
2022/11/06 04:38:33;;;;;;;;;;;2.90;99.90;;;;;;2005705;70;20120;-77
2022/11/06 04:41:20;;;;;;;;;;;2.90;99.90;;;;;;2017740;71;20097;-77
2022/11/06 04:43:51;;;;;;;;;;;2.90;99.90;;;;;;2012393;70;20116;-77
2022/11/06 04:46:19;;;;;;;;;;;2.80;99.90;;;;;;2012597;71;20108;-78
2022/11/06 04:48:46;;;;;;;;;;;2.70;99.90;;;;;;2011321;70;20135;-76
2022/11/06 04:51:13;;;;;;;;;;;2.80;99.90;;;;;;2012685;71;20100;-76
2022/11/06 04:53:40;;;;;;;;;;;2.80;99.90;;;;;;2012372;70;20143;-76
2022/11/06 04:56:08;;;;;;;;;;;2.80;99.90;;;;;;2001259;70;20115;-75
2022/11/06 04:58:35;;;;;;;;;;;2.80;99.90;;;;;;2008951;70;20103;-77
2022/11/06 05:01:02;;;;;;;;;;;2.80;99.90;;;;;;2009155;70;20111;-77
2022/11/06 05:03:28;;;;;;;;;;;2.80;99.90;;;;;;2009481;70;20108;-77
2022/11/06 05:05:55;;;;;;;;;;;2.70;99.90;;;;;;2016091;70;20119;-76
2022/11/06 05:08:22;;;;;;;;;;;2.70;99.90;;;;;;2018108;70;20369;-76
2022/11/06 05:10:49;;;;;;;;;;;2.70;99.90;;;;;;2009112;70;20112;-76
2022/11/06 05:13:15;;;;;;;;;;;2.70;99.90;;;;;;2012446;71;20116;-77
2022/11/06 05:15:42;;;;;;;;;;;2.80;99.90;;;;;;2012429;70;20115;-77
2022/11/06 05:18:09;;;;;;;;;;;2.80;99.90;;;;;;2000015;70;20212;-77
2022/11/06 05:20:35;;;;;;;;;;;2.90;99.90;;;;;;2009498;70;20205;-76
2022/11/06 05:23:02;;;;;;;;;;;3.00;99.90;;;;;;2018821;70;20149;-77
2022/11/06 05:25:30;;;;;;;;;;;3.10;99.90;;;;;;2011905;70;20153;-78
2022/11/06 05:27:57;;;;;;;;;;;2.80;99.90;;;;;;2013967;70;20100;-77
2022/11/06 05:30:24;;;;;;;;;;;2.80;99.90;;;;;;2013932;70;20100;-76
2022/11/06 05:32:50;;;;;;;;;;;2.80;99.90;;;;;;2018489;70;20142;-76
2022/11/06 05:35:18;;;;;;;;;;;2.70;99.90;;;;;;2009460;70;20115;-76
2022/11/06 05:37:44;;;;;;;;;;;2.70;99.90;;;;;;2017173;70;20393;-76
2022/11/06 05:40:11;;;;;;;;;;;2.70;99.90;;;;;;2017441;70;20112;-75
2022/11/06 05:42:39;;;;;;;;;;;2.70;99.90;;;;;;2006949;70;20177;-75
2022/11/06 05:45:06;;;;;;;;;;;2.70;99.90;;;;;;2011088;71;20308;-76
2022/11/06 05:47:33;;;;;;;;;;;2.70;99.90;;;;;;2012677;71;20212;-76
2022/11/06 05:50:00;;;;;;;;;;;2.80;99.90;;;;;;2013822;70;20100;-75
2022/11/06 05:52:26;;;;;;;;;;;2.70;99.90;;;;;;2007186;70;20329;-77
2022/11/06 05:54:53;;;;;;;;;;;2.60;99.90;;;;;;2014887;71;20108;-78
2022/11/06 05:57:20;;;;;;;;;;;2.60;99.90;;;;;;2001533;70;20339;-76
2022/11/06 05:59:47;;;;;;;;;;;2.60;99.90;;;;;;2012458;71;20108;-76
2022/11/06 06:02:13;;;;;;;;;;;2.70;99.90;;;;;;2013707;70;20390;-78
2022/11/06 06:04:40;;;;;;;;;;;2.60;99.90;;;;;;2009904;70;20208;-78
2022/11/06 06:07:07;;;;;;;;;;;2.60;99.90;;;;;;2012455;71;20353;-76
2022/11/06 06:09:33;;;;;;;;;;;2.50;99.90;;;;;;2012061;70;20208;-78
2022/11/06 06:12:00;;;;;;;;;;;2.60;99.90;;;;;;2012498;71;20372;-75
2022/11/06 06:14:27;;;;;;;;;;;2.60;99.90;;;;;;2012480;71;20108;-75
2022/11/06 06:16:53;;;;;;;;;;;2.50;99.90;;;;;;2020770;70;20201;-74
2022/11/06 06:19:20;;;;;;;;;;;2.50;99.90;;;;;;2030386;71;20157;-76
2022/11/06 06:21:47;;;;;;;;;;;2.40;99.90;;;;;;2015653;70;20108;-76
2022/11/06 06:24:14;;;;;;;;;;;2.50;99.90;;;;;;2007213;70;20150;-74
2022/11/06 06:26:40;;;;;;;;;;;2.50;99.90;;;;;;2013235;70;20150;-77
2022/11/06 06:29:07;;;;;;;;;;;2.50;99.90;;;;;;2008602;70;20115;-77
2022/11/06 06:31:34;;;;;;;;;;;2.50;99.90;;;;;;2007958;70;20198;-78
2022/11/06 06:34:00;;;;;;;;;;;2.40;99.90;;;;;;2015935;71;20142;-77
2022/11/06 06:36:27;;;;;;;;;;;2.40;99.90;;;;;;2012169;70;20154;-76
2022/11/06 06:38:54;;;;;;;;;;;2.40;99.90;;;;;;2012243;71;20163;-76
2022/11/06 06:41:21;;;;;;;;;;;2.40;99.90;;;;;;2012563;70;20104;-75
2022/11/06 06:43:48;;;;;;;;;;;2.50;99.90;;;;;;2009986;70;20296;-78
2022/11/06 06:46:15;;;;;;;;;;;2.40;99.90;;;;;;2022168;71;20112;-75
2022/11/06 06:48:41;;;;;;;;;;;2.50;99.90;;;;;;2008295;70;20438;-74
2022/11/06 06:51:08;;;;;;;;;;;2.40;99.90;;;;;;2009873;70;20112;-76
2022/11/06 06:53:35;;;;;;;;;;;2.30;99.90;;;;;;2010794;70;20372;-75
2022/11/06 06:56:02;;;;;;;;;;;2.30;99.90;;;;;;2009430;70;20193;-78
2022/11/06 06:58:28;;;;;;;;;;;2.30;99.90;;;;;;2012312;71;20143;-75
2022/11/06 07:00:57;;;;;;;;;;;2.30;99.90;;;;;;2014627;70;20148;-76
2022/11/06 07:03:23;;;;;;;;;;;2.30;99.90;;;;;;2016750;71;20147;-76
2022/11/06 07:05:50;;;;;;;;;;;2.40;99.90;;;;;;2001325;70;20100;-76
2022/11/06 07:08:17;;;;;;;;;;;2.40;99.90;;;;;;2015729;70;20100;-75
2022/11/06 07:10:43;;;;;;;;;;;2.40;99.90;;;;;;2005678;70;20104;-76
2022/11/06 07:13:10;;;;;;;;;;;2.50;99.90;;;;;;2022014;71;20108;-77
2022/11/06 07:15:37;;;;;;;;;;;2.40;99.90;;;;;;2012426;70;20100;-76
2022/11/06 07:18:04;;;;;;;;;;;2.50;99.90;;;;;;2012351;70;20147;-77
2022/11/06 07:20:31;;;;;;;;;;;2.40;99.90;;;;;;2012546;70;20114;-76
2022/11/06 07:22:57;;;;;;;;;;;2.30;99.90;;;;;;2009859;70;20328;-77
2022/11/06 07:25:25;;;;;;;;;;;2.30;99.90;;;;;;2013359;70;20200;-76
2022/11/06 07:27:51;;;;;;;;;;;2.30;99.90;;;;;;2011231;70;20116;-76
2022/11/06 07:30:18;;;;;;;;;;;2.20;99.90;;;;;;2012555;71;20104;-76
2022/11/06 07:32:45;;;;;;;;;;;2.20;99.90;;;;;;2012570;71;20111;-75
2022/11/06 07:35:11;;;;;;;;;;;2.20;99.90;;;;;;2012578;71;20108;-75
2022/11/06 07:37:38;;;;;;;;;;;2.10;99.90;;;;;;2012412;70;20199;-76
2022/11/06 07:40:05;;;;;;;;;;;2.30;99.90;;;;;;2012494;70;20162;-77
2022/11/06 07:42:32;;;;;;;;;;;2.30;99.90;;;;;;2013179;70;20104;-77
2022/11/06 07:44:59;;;;;;;;;;;2.40;99.90;;;;;;2012561;71;20092;-75
2022/11/06 07:47:26;;;;;;;;;;;2.40;99.90;;;;;;2009065;70;20162;-76
2022/11/06 07:49:53;;;;;;;;;;;2.40;99.90;;;;;;2012540;70;20115;-76
2022/11/06 07:52:20;;;;;;;;;;;2.50;99.90;;;;;;2005441;70;20116;-76
2022/11/06 07:54:46;;;;;;;;;;;2.60;99.90;;;;;;2013630;70;20145;-75
2022/11/06 07:57:13;;;;;;;;;;;2.50;99.90;;;;;;2012404;70;20131;-75
2022/11/06 07:59:41;;;;;;;;;;;2.60;99.90;;;;;;2012007;70;20145;-74
2022/11/06 08:02:11;;;;;;;;;;;2.60;99.90;;;;;;2007944;70;20112;-74
2022/11/06 08:04:38;;;;;;;;;;;2.80;99.90;;;;;;2006294;70;20173;-74
2022/11/06 08:07:05;;;;;;;;;;;2.80;99.90;;;;;;2015618;70;20111;-76
2022/11/06 08:09:32;;;;;;;;;;;2.80;99.90;;;;;;2014495;70;20153;-77
2022/11/06 08:11:58;;;;;;;;;;;2.90;99.90;;;;;;2013128;70;20112;-74
2022/11/06 08:14:25;;;;;;;;;;;3.00;99.90;;;;;;2015017;70;20119;-75
2022/11/06 08:16:52;;;;;;;;;;;3.10;99.90;;;;;;2016495;70;20121;-77
2022/11/06 08:19:18;;;;;;;;;;;3.30;99.90;;;;;;2009135;70;20124;-75
2022/11/06 08:21:45;;;;;;;;;;;3.20;99.90;;;;;;2009036;70;20138;-76
2022/11/06 08:24:12;;;;;;;;;;;3.30;99.90;;;;;;2001091;70;20196;-75
2022/11/06 08:26:39;;;;;;;;;;;3.20;99.90;;;;;;2009165;70;20186;-76
2022/11/06 08:29:05;;;;;;;;;;;3.30;99.90;;;;;;2012742;71;20116;-75
2022/11/06 08:31:32;;;;;;;;;;;3.40;99.90;;;;;;2015832;70;20115;-75
2022/11/06 08:33:59;;;;;;;;;;;3.40;99.90;;;;;;2015819;71;20367;-75
2022/11/06 08:36:25;;;;;;;;;;;3.60;99.90;;;;;;2005719;70;20143;-75
2022/11/06 08:38:52;;;;;;;;;;;3.70;99.90;;;;;;2021170;70;20330;-76
2022/11/06 08:41:19;;;;;;;;;;;3.70;99.90;;;;;;2023666;70;20142;-75
2022/11/06 08:43:47;;;;;;;;;;;3.80;99.90;;;;;;2011175;70;20330;-76
2022/11/06 08:46:14;;;;;;;;;;;3.90;99.90;;;;;;2012431;70;20156;-78
2022/11/06 08:48:40;;;;;;;;;;;3.80;99.90;;;;;;2012659;71;20315;-77
2022/11/06 08:51:09;;;;;;;;;;;4.20;99.90;;;;;;2015967;70;20145;-74
2022/11/06 08:53:35;;;;;;;;;;;4.40;99.90;;;;;;2021651;70;20111;-80
2022/11/06 08:56:03;;;;;;;;;;;4.70;99.90;;;;;;2008983;70;20359;-75
2022/11/06 08:58:29;;;;;;;;;;;5.10;99.90;;;;;;2009114;70;20123;-74
2022/11/06 09:00:56;;;;;;;;;;;5.60;99.90;;;;;;2009231;70;20105;-74
2022/11/06 09:03:23;;;;;;;;;;;5.70;99.90;;;;;;2012629;71;20100;-72
2022/11/06 09:05:51;;;;;;;;;;;5.80;99.90;;;;;;2009102;70;20177;-74
2022/11/06 09:08:18;;;;;;;;;;;5.80;99.90;;;;;;2009067;70;20187;-73
2022/11/06 09:10:44;;;;;;;;;;;5.30;99.90;;;;;;2016488;70;20193;-73
2022/11/06 09:13:11;;;;;;;;;;;5.70;99.90;;;;;;2024903;70;20165;-72
2022/11/06 09:15:38;;;;;;;;;;;6.30;99.90;;;;;;2029488;71;20115;-75
2022/11/06 09:18:04;;;;;;;;;;;7.00;99.90;;;;;;2021503;70;20159;-75
2022/11/06 09:20:31;;;;;;;;;;;6.60;99.90;;;;;;2012387;70;20316;-75
2022/11/06 09:23:01;;;;;;;;;;;7.00;99.90;;;;;;2008977;70;20222;-75
2022/11/06 09:25:29;;;;;;;;;;;7.30;99.90;;;;;;2011494;70;20374;-75
2022/11/06 09:27:55;;;;;;;;;;;7.20;99.90;;;;;;2006147;70;20367;-74
2022/11/06 09:30:23;;;;;;;;;;;7.30;99.90;;;;;;2014098;70;20119;-74
2022/11/06 09:32:54;;;;;;;;;;;7.20;99.90;;;;;;2012466;71;20107;-78
2022/11/06 09:35:21;;;;;;;;;;;7.20;99.90;;;;;;2010713;70;20144;-74
2022/11/06 09:37:48;;;;;;;;;;;7.30;99.90;;;;;;2012523;70;20112;-75
2022/11/06 09:40:16;;;;;;;;;;;7.10;99.90;;;;;;2012446;70;20374;-75
2022/11/06 09:42:51;;;;;;;;;;;7.20;99.90;;;;;;2007641;70;20205;-75
2022/11/06 09:45:21;;;;;;;;;;;7.40;99.90;;;;;;1965695;71;20116;-75
2022/11/06 09:47:47;;;;;;;;;;;7.70;99.90;;;;;;2008735;70;20140;-75
2022/11/06 09:50:16;;;;;;;;;;;7.80;99.90;;;;;;2009483;70;20154;-74
2022/11/06 09:52:44;;;;;;;;;;;7.90;99.90;;;;;;2023436;70;20111;-75
2022/11/06 09:55:15;;;;;;;;;;;8.30;99.90;;;;;;2011760;70;20169;-75
2022/11/06 09:57:50;;;;;;;;;;;8.20;99.90;;;;;;2009460;70;20149;-74
2022/11/06 10:00:16;;;;;;;;;;;8.20;99.90;;;;;;2009204;70;20116;-74
2022/11/06 10:02:50;;;;;;;;;;;8.20;99.90;;;;;;2009069;70;20141;-74
2022/11/06 10:05:18;;;;;;;;;;;8.50;99.90;;;;;;2008541;70;20158;-74
2022/11/06 10:07:45;;;;;;;;;;;8.40;99.90;;;;;;2013378;70;20385;-74
2022/11/06 10:10:13;;;;;;;;;;;8.20;99.90;;;;;;2017329;70;20115;-74
2022/11/06 10:12:41;;;;;;;;;;;8.40;99.90;;;;;;2014154;71;20141;-69
2022/11/06 10:15:19;;;;;;;;;;;8.30;99.90;;;;;;2011589;71;20377;-72
2022/11/06 10:18:04;;;;;;;;;;;8.50;99.90;;;;;;2012757;71;20388;-72
2022/11/06 10:20:31;;;;;;;;;;;8.30;99.90;;;;;;2011770;70;20116;-70
2022/11/06 10:23:00;;;;;;;;;;;8.60;99.90;;;;;;1987557;71;20112;-72
2022/11/06 10:25:28;;;;;;;;;;;8.70;99.90;;;;;;2009426;70;20177;-71
2022/11/06 10:27:56;;;;;;;;;;;9.00;99.90;;;;;;2012967;70;20188;-71
2022/11/06 10:30:24;;;;;;;;;;;8.90;99.90;;;;;;2009195;70;20316;-71
2022/11/06 10:33:07;;;;;;;;;;;9.20;99.90;;;;;;2007097;70;20335;-71
2022/11/06 10:35:38;;;;;;;;;;;9.30;99.90;;;;;;2004703;70;20116;-71
2022/11/06 10:38:06;;;;;;;;;;;9.20;99.90;;;;;;2010504;70;20159;-70
2022/11/06 10:40:34;;;;;;;;;;;9.20;99.90;;;;;;2014080;70;20147;-70
2022/11/06 10:43:14;;;;;;;;;;;9.60;99.90;;;;;;2010450;71;20100;-69
2022/11/06 10:45:44;;;;;;;;;;;9.90;99.90;;;;;;2008702;70;20115;-70
2022/11/06 10:48:21;;;;;;;;;;;10.10;99.90;;;;;;2022381;71;20129;-73
2022/11/06 10:50:50;;;;;;;;;;;10.20;99.90;;;;;;2012309;70;20112;-73
2022/11/06 10:53:18;;;;;;;;;;;10.00;99.90;;;;;;2007357;70;20120;-70
2022/11/06 10:55:46;;;;;;;;;;;10.20;99.90;;;;;;2007856;70;20151;-69
2022/11/06 10:58:20;;;;;;;;;;;10.50;99.90;;;;;;2005144;70;20112;-70
2022/11/06 11:00:49;;;;;;;;;;;10.40;99.90;;;;;;2012752;71;20105;-72
2022/11/06 11:03:18;;;;;;;;;;;10.30;99.90;;;;;;2015794;70;20163;-72
2022/11/06 11:05:44;;;;;;;;;;;10.10;99.90;;;;;;2020891;70;20111;-73
2022/11/06 11:08:29;;;;;;;;;;;10.40;99.90;;;;;;2002968;70;20104;-74
2022/11/06 11:11:02;;;;;;;;;;;10.50;99.90;;;;;;2012690;71;20096;-72
2022/11/06 11:13:29;;;;;;;;;;;10.40;99.90;;;;;;2008385;70;20227;-74
2022/11/06 11:15:56;;;;;;;;;;;10.50;99.90;;;;;;2012669;71;20107;-71
2022/11/06 11:18:30;;;;;;;;;;;10.60;99.90;;;;;;2017823;70;20136;-71
2022/11/06 11:20:56;;;;;;;;;;;10.50;99.90;;;;;;2017431;70;20129;-72
2022/11/06 11:23:27;;;;;;;;;;;10.60;99.90;;;;;;2008994;70;20320;-75
2022/11/06 11:25:55;;;;;;;;;;;10.60;99.90;;;;;;2016912;70;20112;-75
2022/11/06 11:28:26;;;;;;;;;;;10.90;99.90;;;;;;2021776;71;20111;-77
2022/11/06 11:30:54;;;;;;;;;;;10.90;99.90;;;;;;2012508;70;20115;-73
2022/11/06 11:33:23;;;;;;;;;;;11.20;99.90;;;;;;2001210;70;20113;-74
2022/11/06 11:35:50;;;;;;;;;;;11.30;99.90;;;;;;2020397;70;20111;-72
2022/11/06 11:38:17;;;;;;;;;;;11.80;99.90;;;;;;2012645;71;20158;-73
2022/11/06 11:40:44;;;;;;;;;;;11.80;99.90;;;;;;2011082;70;20381;-72
2022/11/06 11:43:27;;;;;;;;;;;12.30;99.90;;;;;;2006929;70;20116;-72
2022/11/06 11:46:11;;;;;;;;;;;12.60;99.90;;;;;;2012982;70;20115;-73
2022/11/06 11:48:42;;;;;;;;;;;12.30;99.90;;;;;;2011021;70;20100;-76
2022/11/06 11:51:27;;;;;;;;;;;13.00;99.90;;;;;;2011748;70;20108;-72
2022/11/06 11:53:58;;;;;;;;;;;12.80;99.90;;;;;;2010519;70;20208;-70
2022/11/06 11:56:27;;;;;;;;;;;13.00;99.90;;;;;;2015481;71;20382;-73
2022/11/06 11:58:58;;;;;;;;;;;13.50;99.90;;;;;;2004249;70;20128;-73
2022/11/06 12:01:36;;;;;;;;;;;13.40;99.90;;;;;;2024108;70;20127;-72
2022/11/06 12:04:04;;;;;;;;;;;13.80;99.90;;;;;;2015190;70;20116;-76
2022/11/06 12:06:31;;;;;;;;;;;13.40;99.90;;;;;;2012505;71;20119;-75
2022/11/06 12:08:58;;;;;;;;;;;13.10;99.90;;;;;;2009392;70;20145;-73
2022/11/06 12:11:25;;;;;;;;;;;13.50;99.90;;;;;;2016927;70;20100;-73
2022/11/06 12:14:10;;;;;;;;;;;14.20;99.90;;;;;;2015408;70;20197;-74
2022/11/06 12:16:38;;;;;;;;;;;14.10;99.90;;;;;;2013071;70;20100;-73
2022/11/06 12:19:06;;;;;;;;;;;13.00;99.90;;;;;;2009550;70;20189;-74
2022/11/06 12:21:33;;;;;;;;;;;13.10;99.90;;;;;;2012969;71;20123;-72
2022/11/06 12:24:04;;;;;;;;;;;12.90;99.90;;;;;;2005794;70;20112;-72
2022/11/06 12:26:49;;;;;;;;;;;13.00;99.90;;;;;;2012839;70;20104;-74
2022/11/06 12:29:17;;;;;;;;;;;13.00;99.90;;;;;;2012650;70;20197;-73
2022/11/06 12:31:46;;;;;;;;;;;13.10;99.90;;;;;;2005751;70;20104;-72
2022/11/06 12:34:17;;;;;;;;;;;13.40;99.90;;;;;;2008460;70;20104;-77
2022/11/06 12:36:46;;;;;;;;;;;13.60;99.90;;;;;;2012896;70;20138;-71
2022/11/06 12:39:19;;;;;;;;;;;13.20;99.90;;;;;;2013852;70;20099;-73
2022/11/06 12:41:46;;;;;;;;;;;13.20;99.90;;;;;;2015536;70;20103;-72
2022/11/06 12:44:13;;;;;;;;;;;13.50;99.90;;;;;;2013068;71;20307;-73
2022/11/06 12:46:42;;;;;;;;;;;13.60;99.90;;;;;;2009650;70;20122;-74
2022/11/06 12:49:10;;;;;;;;;;;14.00;99.90;;;;;;2023302;70;20115;-72
2022/11/06 12:51:55;;;;;;;;;;;13.70;99.90;;;;;;1990486;70;20217;-71
2022/11/06 12:54:36;;;;;;;;;;;12.70;99.90;;;;;;2016773;70;20099;-70
2022/11/06 12:57:07;;;;;;;;;;;12.80;99.90;;;;;;2009328;70;20166;-69
2022/11/06 12:59:39;;;;;;;;;;;12.80;99.90;;;;;;2003856;70;20145;-68
2022/11/06 13:02:10;;;;;;;;;;;12.90;99.90;;;;;;2012381;71;20189;-69
2022/11/06 13:04:39;;;;;;;;;;;12.90;99.90;;;;;;2004970;70;20140;-77
2022/11/06 13:07:07;;;;;;;;;;;12.90;99.90;;;;;;2013552;71;20389;-72
2022/11/06 13:09:38;;;;;;;;;;;12.70;99.90;;;;;;2009567;70;20104;-71
2022/11/06 13:12:13;;;;;;;;;;;12.70;99.90;;;;;;1986520;70;20408;-72
2022/11/06 13:14:41;;;;;;;;;;;12.60;99.90;;;;;;2012963;70;20104;-75
2022/11/06 13:17:26;;;;;;;;;;;12.40;99.90;;;;;;1981700;70;20309;-73
2022/11/06 13:23:00;;;;;;;;;;;12.50;99.90;;;;;;2048909;69;20166;-69
2022/11/06 13:25:46;;;;;;;;;;;12.90;99.90;;;;;;2046130;69;20144;-70
2022/11/06 13:28:17;;;;;;;;;;;12.50;99.90;;;;;;2047170;70;20114;-70
2022/11/06 13:30:45;;;;;;;;;;;12.10;99.90;;;;;;2041378;69;20192;-71
2022/11/06 13:33:16;;;;;;;;;;;12.20;99.90;;;;;;2041781;69;20140;-71
2022/11/06 13:35:43;;;;;;;;;;;12.50;99.90;;;;;;2045667;69;20125;-74
2022/11/06 13:38:11;;;;;;;;;;;12.30;99.90;;;;;;2047637;69;20113;-71
2022/11/06 13:40:42;;;;;;;;;;;12.20;99.90;;;;;;2040510;69;20173;-72
2022/11/06 13:43:12;;;;;;;;;;;12.10;99.90;;;;;;2041898;70;20135;-70
2022/11/06 13:45:43;;;;;;;;;;;12.00;99.90;;;;;;2041683;69;20103;-71
2022/11/06 13:48:11;;;;;;;;;;;11.90;99.90;;;;;;2043056;69;20317;-71
2022/11/06 13:50:49;;;;;;;;;;;12.00;99.90;;;;;;2041471;69;20109;-70
2022/11/06 13:53:26;;;;;;;;;;;12.00;99.90;;;;;;2043660;69;20208;-71
2022/11/06 13:55:59;;;;;;;;;;;12.00;99.90;;;;;;2044004;69;20113;-71
2022/11/06 13:58:40;;;;;;;;;;;12.10;99.90;;;;;;2047363;70;20164;-70
2022/11/06 14:01:17;;;;;;;;;;;11.90;99.90;;;;;;2045901;69;20119;-73
2022/11/06 14:04:02;;;;;;;;;;;11.80;99.90;;;;;;2047241;69;20139;-71
2022/11/06 14:06:30;;;;;;;;;;;11.90;99.90;;;;;;2047410;70;20094;-76
2022/11/06 14:08:58;;;;;;;;;;;11.70;99.90;;;;;;2044965;69;20098;-71
2022/11/06 14:11:26;;;;;;;;;;;11.70;99.90;;;;;;2042233;69;20364;-71
2022/11/06 14:13:57;;;;;;;;;;;11.60;99.90;;;;;;2047609;69;20469;-69
2022/11/06 14:16:25;;;;;;;;;;;11.50;99.90;;;;;;2041785;69;20103;-70
2022/11/06 14:19:02;;;;;;;;;;;11.50;99.90;;;;;;2007951;71;20373;-70
2022/11/06 14:21:43;;;;;;;;;;;11.60;99.90;;;;;;2022067;69;20327;-69
2022/11/06 14:24:17;;;;;;;;;;;11.30;99.90;;;;;;2043016;69;20333;-70
2022/11/06 14:26:45;;;;;;;;;;;11.30;99.90;;;;;;2038824;69;20110;-71
2022/11/06 14:29:30;;;;;;;;;;;11.20;99.90;;;;;;2041639;69;20107;-70
2022/11/06 14:32:09;;;;;;;;;;;11.20;99.90;;;;;;2045221;69;20163;-70
2022/11/06 14:34:36;;;;;;;;;;;11.10;99.90;;;;;;2036430;69;20169;-71
2022/11/06 14:37:19;;;;;;;;;;;11.10;99.90;;;;;;2041468;69;20183;-70
2022/11/06 14:39:57;;;;;;;;;;;11.00;99.90;;;;;;2044472;69;20294;-71
2022/11/06 14:42:25;;;;;;;;;;;10.90;99.90;;;;;;2047017;70;20106;-71
2022/11/06 14:47:55;;;;;;;;;;;10.70;99.90;;;;;;2046427;69;20262;-71
2022/11/06 14:50:25;;;;;;;;;;;10.60;99.90;;;;;;2043656;69;20133;-71
2022/11/06 14:52:57;;;;;;;;;;;10.40;99.90;;;;;;2043998;69;20114;-70
2022/11/06 14:55:31;;;;;;;;;;;10.50;99.90;;;;;;2043556;69;20344;-70
2022/11/06 14:57:59;;;;;;;;;;;10.30;99.90;;;;;;2041343;69;20103;-70